sensor_id;sensor_type;location;lat;lon;timestamp;temperature;humidity
17385;DHT22;8810;48.680;8.894;2022-09-03T00:01:15;15.80;99.90
17385;DHT22;8810;48.680;8.894;2022-09-03T00:03:46;15.80;99.90
17385;DHT22;8810;48.680;8.894;2022-09-03T00:06:19;15.80;99.90
17385;DHT22;8810;48.680;8.894;2022-09-03T00:08:51;15.80;99.90
17385;DHT22;8810;48.680;8.894;2022-09-03T00:11:22;15.80;99.90
17385;DHT22;8810;48.680;8.894;2022-09-03T00:13:56;15.80;99.90
17385;DHT22;8810;48.680;8.894;2022-09-03T00:16:28;15.80;99.90
17385;DHT22;8810;48.680;8.894;2022-09-03T00:18:59;15.80;99.90
17385;DHT22;8810;48.680;8.894;2022-09-03T00:21:35;15.80;99.90
17385;DHT22;8810;48.680;8.894;2022-09-03T00:24:05;15.80;99.90
17385;DHT22;8810;48.680;8.894;2022-09-03T00:26:35;15.80;99.90
17385;DHT22;8810;48.680;8.894;2022-09-03T00:29:08;15.80;99.90
17385;DHT22;8810;48.680;8.894;2022-09-03T00:31:39;15.80;99.90
17385;DHT22;8810;48.680;8.894;2022-09-03T00:34:11;15.80;99.90
17385;DHT22;8810;48.680;8.894;2022-09-03T00:36:42;15.80;99.90
17385;DHT22;8810;48.680;8.894;2022-09-03T00:39:11;15.80;99.90
17385;DHT22;8810;48.680;8.894;2022-09-03T00:41:46;15.80;99.90
17385;DHT22;8810;48.680;8.894;2022-09-03T00:44:36;15.80;99.90
17385;DHT22;8810;48.680;8.894;2022-09-03T00:47:16;15.80;99.90
17385;DHT22;8810;48.680;8.894;2022-09-03T00:49:50;15.80;99.90
17385;DHT22;8810;48.680;8.894;2022-09-03T00:52:31;15.80;99.90
17385;DHT22;8810;48.680;8.894;2022-09-03T00:55:06;15.80;99.90
17385;DHT22;8810;48.680;8.894;2022-09-03T00:57:45;15.80;99.90
17385;DHT22;8810;48.680;8.894;2022-09-03T01:00:19;15.80;99.90
17385;DHT22;8810;48.680;8.894;2022-09-03T01:02:55;15.80;99.90
17385;DHT22;8810;48.680;8.894;2022-09-03T01:05:38;15.70;99.90
17385;DHT22;8810;48.680;8.894;2022-09-03T01:08:18;15.70;99.90
17385;DHT22;8810;48.680;8.894;2022-09-03T01:10:55;15.70;99.90
17385;DHT22;8810;48.680;8.894;2022-09-03T01:13:28;15.70;99.90
17385;DHT22;8810;48.680;8.894;2022-09-03T01:16:06;15.70;99.90
17385;DHT22;8810;48.680;8.894;2022-09-03T01:18:40;15.70;99.90
17385;DHT22;8810;48.680;8.894;2022-09-03T01:24:35;15.80;99.90
17385;DHT22;8810;48.680;8.894;2022-09-03T01:27:21;15.80;99.90
17385;DHT22;8810;48.680;8.894;2022-09-03T01:29:59;15.70;99.90
17385;DHT22;8810;48.680;8.894;2022-09-03T01:32:36;15.70;99.90
17385;DHT22;8810;48.680;8.894;2022-09-03T01:35:12;15.70;99.90
17385;DHT22;8810;48.680;8.894;2022-09-03T01:37:53;15.70;99.90
17385;DHT22;8810;48.680;8.894;2022-09-03T01:40:28;15.60;99.90
17385;DHT22;8810;48.680;8.894;2022-09-03T01:43:09;15.60;99.90
17385;DHT22;8810;48.680;8.894;2022-09-03T01:45:46;15.60;99.90
17385;DHT22;8810;48.680;8.894;2022-09-03T01:48:32;15.60;99.90
17385;DHT22;8810;48.680;8.894;2022-09-03T01:51:15;15.60;99.90
17385;DHT22;8810;48.680;8.894;2022-09-03T01:54:31;15.60;99.90
17385;DHT22;8810;48.680;8.894;2022-09-03T02:00:06;15.60;99.90
17385;DHT22;8810;48.680;8.894;2022-09-03T02:02:35;15.60;99.90
17385;DHT22;8810;48.680;8.894;2022-09-03T02:05:06;15.50;99.90
17385;DHT22;8810;48.680;8.894;2022-09-03T02:07:35;15.50;99.90
17385;DHT22;8810;48.680;8.894;2022-09-03T02:10:06;15.50;99.90
17385;DHT22;8810;48.680;8.894;2022-09-03T02:12:35;15.50;99.90
17385;DHT22;8810;48.680;8.894;2022-09-03T02:15:06;15.50;99.90
17385;DHT22;8810;48.680;8.894;2022-09-03T02:17:35;15.50;99.90
17385;DHT22;8810;48.680;8.894;2022-09-03T02:20:05;15.50;99.90
17385;DHT22;8810;48.680;8.894;2022-09-03T02:22:34;15.50;99.90
17385;DHT22;8810;48.680;8.894;2022-09-03T02:25:01;15.50;99.90
17385;DHT22;8810;48.680;8.894;2022-09-03T02:27:28;15.50;99.90
17385;DHT22;8810;48.680;8.894;2022-09-03T02:29:55;15.50;99.90
17385;DHT22;8810;48.680;8.894;2022-09-03T02:32:23;15.40;99.90
17385;DHT22;8810;48.680;8.894;2022-09-03T02:34:51;15.40;99.90
17385;DHT22;8810;48.680;8.894;2022-09-03T02:37:18;15.50;99.90
17385;DHT22;8810;48.680;8.894;2022-09-03T02:39:45;15.40;99.90
17385;DHT22;8810;48.680;8.894;2022-09-03T02:42:13;15.40;99.90
17385;DHT22;8810;48.680;8.894;2022-09-03T02:44:42;15.40;99.90
17385;DHT22;8810;48.680;8.894;2022-09-03T02:47:11;15.40;99.90
17385;DHT22;8810;48.680;8.894;2022-09-03T02:49:38;15.30;99.90
17385;DHT22;8810;48.680;8.894;2022-09-03T02:52:08;15.30;99.90
17385;DHT22;8810;48.680;8.894;2022-09-03T02:54:37;15.30;99.90
17385;DHT22;8810;48.680;8.894;2022-09-03T02:57:05;15.20;99.90
17385;DHT22;8810;48.680;8.894;2022-09-03T02:59:33;15.20;99.90
17385;DHT22;8810;48.680;8.894;2022-09-03T03:02:02;15.20;99.90
17385;DHT22;8810;48.680;8.894;2022-09-03T03:04:29;15.10;99.90
17385;DHT22;8810;48.680;8.894;2022-09-03T03:06:56;15.10;99.90
17385;DHT22;8810;48.680;8.894;2022-09-03T03:09:24;15.00;99.90
17385;DHT22;8810;48.680;8.894;2022-09-03T03:11:51;15.00;99.90
17385;DHT22;8810;48.680;8.894;2022-09-03T03:14:22;15.00;99.90
17385;DHT22;8810;48.680;8.894;2022-09-03T03:16:49;14.90;99.90
17385;DHT22;8810;48.680;8.894;2022-09-03T03:19:16;14.90;99.90
17385;DHT22;8810;48.680;8.894;2022-09-03T03:21:43;15.00;99.90
17385;DHT22;8810;48.680;8.894;2022-09-03T03:24:10;15.00;99.90
17385;DHT22;8810;48.680;8.894;2022-09-03T03:26:38;15.00;99.90
17385;DHT22;8810;48.680;8.894;2022-09-03T03:29:06;15.00;99.90
17385;DHT22;8810;48.680;8.894;2022-09-03T03:31:33;15.00;99.90
17385;DHT22;8810;48.680;8.894;2022-09-03T03:34:01;15.10;99.90
17385;DHT22;8810;48.680;8.894;2022-09-03T03:36:30;15.10;99.90
17385;DHT22;8810;48.680;8.894;2022-09-03T03:38:59;15.10;99.90
17385;DHT22;8810;48.680;8.894;2022-09-03T03:41:27;15.10;99.90
17385;DHT22;8810;48.680;8.894;2022-09-03T03:43:58;15.10;99.90
17385;DHT22;8810;48.680;8.894;2022-09-03T03:46:30;15.10;99.90
17385;DHT22;8810;48.680;8.894;2022-09-03T03:48:57;15.20;99.90
17385;DHT22;8810;48.680;8.894;2022-09-03T03:51:26;15.20;99.90
17385;DHT22;8810;48.680;8.894;2022-09-03T03:53:53;15.20;99.90
17385;DHT22;8810;48.680;8.894;2022-09-03T03:56:22;15.20;99.90
17385;DHT22;8810;48.680;8.894;2022-09-03T03:58:49;15.20;99.90
17385;DHT22;8810;48.680;8.894;2022-09-03T04:01:20;15.30;99.90
17385;DHT22;8810;48.680;8.894;2022-09-03T04:03:47;15.30;99.90
17385;DHT22;8810;48.680;8.894;2022-09-03T04:06:16;15.40;99.90
17385;DHT22;8810;48.680;8.894;2022-09-03T04:08:44;15.50;99.90
17385;DHT22;8810;48.680;8.894;2022-09-03T04:11:13;15.60;99.90
17385;DHT22;8810;48.680;8.894;2022-09-03T04:13:42;15.60;99.90
17385;DHT22;8810;48.680;8.894;2022-09-03T04:16:11;15.70;99.90
17385;DHT22;8810;48.680;8.894;2022-09-03T04:18:40;15.70;99.90
17385;DHT22;8810;48.680;8.894;2022-09-03T04:21:08;15.80;99.90
17385;DHT22;8810;48.680;8.894;2022-09-03T04:23:37;15.80;99.90
17385;DHT22;8810;48.680;8.894;2022-09-03T04:26:05;15.90;99.90
17385;DHT22;8810;48.680;8.894;2022-09-03T04:28:33;15.90;99.90
17385;DHT22;8810;48.680;8.894;2022-09-03T04:31:01;16.00;99.90
17385;DHT22;8810;48.680;8.894;2022-09-03T04:33:28;16.00;99.90
17385;DHT22;8810;48.680;8.894;2022-09-03T04:36:05;16.00;99.90
17385;DHT22;8810;48.680;8.894;2022-09-03T04:38:34;16.10;99.90
17385;DHT22;8810;48.680;8.894;2022-09-03T04:41:01;16.10;99.90
17385;DHT22;8810;48.680;8.894;2022-09-03T04:43:29;16.10;99.90
17385;DHT22;8810;48.680;8.894;2022-09-03T04:45:57;16.20;99.90
17385;DHT22;8810;48.680;8.894;2022-09-03T04:48:24;16.20;99.90
17385;DHT22;8810;48.680;8.894;2022-09-03T04:50:51;16.20;99.90
17385;DHT22;8810;48.680;8.894;2022-09-03T04:53:20;16.20;99.90
17385;DHT22;8810;48.680;8.894;2022-09-03T04:55:48;16.20;99.90
17385;DHT22;8810;48.680;8.894;2022-09-03T04:58:15;16.20;99.90
17385;DHT22;8810;48.680;8.894;2022-09-03T05:00:42;16.10;99.90
17385;DHT22;8810;48.680;8.894;2022-09-03T05:03:09;16.10;99.90
17385;DHT22;8810;48.680;8.894;2022-09-03T05:05:37;16.00;99.90
17385;DHT22;8810;48.680;8.894;2022-09-03T05:08:04;16.00;99.90
17385;DHT22;8810;48.680;8.894;2022-09-03T05:10:33;16.00;99.90
17385;DHT22;8810;48.680;8.894;2022-09-03T05:13:01;16.00;99.90
17385;DHT22;8810;48.680;8.894;2022-09-03T05:15:29;16.00;99.90
17385;DHT22;8810;48.680;8.894;2022-09-03T05:17:58;15.90;99.90
17385;DHT22;8810;48.680;8.894;2022-09-03T05:20:25;15.90;99.90
17385;DHT22;8810;48.680;8.894;2022-09-03T05:22:54;15.90;99.90
17385;DHT22;8810;48.680;8.894;2022-09-03T05:25:22;16.00;99.90
17385;DHT22;8810;48.680;8.894;2022-09-03T05:27:50;16.00;99.90
17385;DHT22;8810;48.680;8.894;2022-09-03T05:30:19;16.00;99.90
17385;DHT22;8810;48.680;8.894;2022-09-03T05:32:48;16.10;99.90
17385;DHT22;8810;48.680;8.894;2022-09-03T05:35:15;16.10;99.90
17385;DHT22;8810;48.680;8.894;2022-09-03T05:37:42;16.20;99.90
17385;DHT22;8810;48.680;8.894;2022-09-03T05:40:09;16.20;99.90
17385;DHT22;8810;48.680;8.894;2022-09-03T05:42:36;16.30;99.90
17385;DHT22;8810;48.680;8.894;2022-09-03T05:45:07;16.40;99.90
17385;DHT22;8810;48.680;8.894;2022-09-03T05:47:36;16.40;99.90
17385;DHT22;8810;48.680;8.894;2022-09-03T05:50:05;16.40;99.90
17385;DHT22;8810;48.680;8.894;2022-09-03T05:52:33;16.50;99.90
17385;DHT22;8810;48.680;8.894;2022-09-03T05:55:00;16.50;99.90
17385;DHT22;8810;48.680;8.894;2022-09-03T05:57:27;16.50;99.90
17385;DHT22;8810;48.680;8.894;2022-09-03T05:59:55;16.50;99.90
17385;DHT22;8810;48.680;8.894;2022-09-03T06:02:23;16.50;99.90
17385;DHT22;8810;48.680;8.894;2022-09-03T06:04:50;16.50;99.90
17385;DHT22;8810;48.680;8.894;2022-09-03T06:07:17;16.50;99.90
17385;DHT22;8810;48.680;8.894;2022-09-03T06:09:45;16.60;99.90
17385;DHT22;8810;48.680;8.894;2022-09-03T06:12:12;16.60;99.90
17385;DHT22;8810;48.680;8.894;2022-09-03T06:14:39;16.70;99.90
17385;DHT22;8810;48.680;8.894;2022-09-03T06:17:06;16.70;99.90
17385;DHT22;8810;48.680;8.894;2022-09-03T06:19:37;16.70;99.90
17385;DHT22;8810;48.680;8.894;2022-09-03T06:22:04;16.80;99.90
17385;DHT22;8810;48.680;8.894;2022-09-03T06:24:31;16.80;99.90
17385;DHT22;8810;48.680;8.894;2022-09-03T06:26:58;16.80;99.90
17385;DHT22;8810;48.680;8.894;2022-09-03T06:29:26;16.90;99.90
17385;DHT22;8810;48.680;8.894;2022-09-03T06:31:53;16.90;99.90
17385;DHT22;8810;48.680;8.894;2022-09-03T06:34:20;17.00;99.90
17385;DHT22;8810;48.680;8.894;2022-09-03T06:36:51;17.10;99.90
17385;DHT22;8810;48.680;8.894;2022-09-03T06:39:18;17.10;99.90
17385;DHT22;8810;48.680;8.894;2022-09-03T06:41:45;17.20;99.90
17385;DHT22;8810;48.680;8.894;2022-09-03T06:44:16;17.30;99.90
17385;DHT22;8810;48.680;8.894;2022-09-03T06:46:43;17.40;99.90
17385;DHT22;8810;48.680;8.894;2022-09-03T06:49:10;17.40;99.90
17385;DHT22;8810;48.680;8.894;2022-09-03T06:51:38;17.50;99.90
17385;DHT22;8810;48.680;8.894;2022-09-03T06:54:08;17.60;99.90
17385;DHT22;8810;48.680;8.894;2022-09-03T06:56:35;17.60;99.90
17385;DHT22;8810;48.680;8.894;2022-09-03T06:59:05;17.70;99.90
17385;DHT22;8810;48.680;8.894;2022-09-03T07:01:33;17.80;99.90
17385;DHT22;8810;48.680;8.894;2022-09-03T07:04:01;18.00;99.90
17385;DHT22;8810;48.680;8.894;2022-09-03T07:06:30;18.20;99.90
17385;DHT22;8810;48.680;8.894;2022-09-03T07:08:58;18.50;99.90
17385;DHT22;8810;48.680;8.894;2022-09-03T07:11:28;18.80;99.90
17385;DHT22;8810;48.680;8.894;2022-09-03T07:13:56;19.00;99.90
17385;DHT22;8810;48.680;8.894;2022-09-03T07:16:24;19.10;99.90
17385;DHT22;8810;48.680;8.894;2022-09-03T07:18:52;19.20;99.90
17385;DHT22;8810;48.680;8.894;2022-09-03T07:21:21;19.30;99.90
17385;DHT22;8810;48.680;8.894;2022-09-03T07:23:49;19.40;99.90
17385;DHT22;8810;48.680;8.894;2022-09-03T07:26:19;19.40;99.90
17385;DHT22;8810;48.680;8.894;2022-09-03T07:28:48;19.40;99.90
17385;DHT22;8810;48.680;8.894;2022-09-03T07:31:17;19.40;99.90
17385;DHT22;8810;48.680;8.894;2022-09-03T07:33:47;19.50;99.90
17385;DHT22;8810;48.680;8.894;2022-09-03T07:36:15;19.50;99.90
17385;DHT22;8810;48.680;8.894;2022-09-03T07:38:44;19.60;99.90
17385;DHT22;8810;48.680;8.894;2022-09-03T07:41:12;19.70;99.90
17385;DHT22;8810;48.680;8.894;2022-09-03T07:43:41;19.80;99.90
17385;DHT22;8810;48.680;8.894;2022-09-03T07:46:14;19.90;99.90
17385;DHT22;8810;48.680;8.894;2022-09-03T07:48:45;20.00;99.90
17385;DHT22;8810;48.680;8.894;2022-09-03T07:51:14;20.10;99.90
17385;DHT22;8810;48.680;8.894;2022-09-03T07:53:42;20.30;99.90
17385;DHT22;8810;48.680;8.894;2022-09-03T07:56:10;20.40;99.90
17385;DHT22;8810;48.680;8.894;2022-09-03T07:58:38;20.50;99.90
17385;DHT22;8810;48.680;8.894;2022-09-03T08:01:06;20.70;99.90
17385;DHT22;8810;48.680;8.894;2022-09-03T08:03:36;20.90;99.90
17385;DHT22;8810;48.680;8.894;2022-09-03T08:06:05;21.10;99.90
17385;DHT22;8810;48.680;8.894;2022-09-03T08:08:33;21.30;99.90
17385;DHT22;8810;48.680;8.894;2022-09-03T08:11:05;21.40;99.90
17385;DHT22;8810;48.680;8.894;2022-09-03T08:13:36;21.40;99.90
17385;DHT22;8810;48.680;8.894;2022-09-03T08:16:03;21.40;99.90
17385;DHT22;8810;48.680;8.894;2022-09-03T08:18:31;21.30;99.90
17385;DHT22;8810;48.680;8.894;2022-09-03T08:21:01;21.30;99.90
17385;DHT22;8810;48.680;8.894;2022-09-03T08:23:28;21.30;99.90
17385;DHT22;8810;48.680;8.894;2022-09-03T08:25:57;21.10;99.90
17385;DHT22;8810;48.680;8.894;2022-09-03T08:28:24;21.10;99.90
17385;DHT22;8810;48.680;8.894;2022-09-03T08:30:51;21.10;99.90
17385;DHT22;8810;48.680;8.894;2022-09-03T08:33:18;21.20;99.90
17385;DHT22;8810;48.680;8.894;2022-09-03T08:36:03;21.20;99.90
17385;DHT22;8810;48.680;8.894;2022-09-03T08:38:31;21.20;99.90
17385;DHT22;8810;48.680;8.894;2022-09-03T08:41:06;21.20;99.90
17385;DHT22;8810;48.680;8.894;2022-09-03T08:43:46;21.30;99.90
17385;DHT22;8810;48.680;8.894;2022-09-03T08:46:16;21.20;99.90
17385;DHT22;8810;48.680;8.894;2022-09-03T08:48:43;21.20;99.90
17385;DHT22;8810;48.680;8.894;2022-09-03T08:51:17;21.20;99.90
17385;DHT22;8810;48.680;8.894;2022-09-03T08:53:49;21.30;99.90
17385;DHT22;8810;48.680;8.894;2022-09-03T08:56:24;21.30;99.90
17385;DHT22;8810;48.680;8.894;2022-09-03T08:58:52;21.40;99.90
17385;DHT22;8810;48.680;8.894;2022-09-03T09:01:29;21.40;99.90
17385;DHT22;8810;48.680;8.894;2022-09-03T09:04:07;21.40;99.90
17385;DHT22;8810;48.680;8.894;2022-09-03T09:06:42;21.40;99.90
17385;DHT22;8810;48.680;8.894;2022-09-03T09:09:21;21.40;99.90
17385;DHT22;8810;48.680;8.894;2022-09-03T09:12:00;21.30;99.90
17385;DHT22;8810;48.680;8.894;2022-09-03T09:14:35;21.30;99.90
17385;DHT22;8810;48.680;8.894;2022-09-03T09:17:21;21.50;99.90
17385;DHT22;8810;48.680;8.894;2022-09-03T09:20:01;21.90;99.90
17385;DHT22;8810;48.680;8.894;2022-09-03T09:22:35;22.20;99.90
17385;DHT22;8810;48.680;8.894;2022-09-03T09:25:08;22.50;99.90
17385;DHT22;8810;48.680;8.894;2022-09-03T09:27:42;22.60;99.90
17385;DHT22;8810;48.680;8.894;2022-09-03T09:30:13;22.80;99.90
17385;DHT22;8810;48.680;8.894;2022-09-03T09:32:42;23.00;99.90
17385;DHT22;8810;48.680;8.894;2022-09-03T09:35:09;23.40;99.90
17385;DHT22;8810;48.680;8.894;2022-09-03T09:37:48;23.80;99.90
17385;DHT22;8810;48.680;8.894;2022-09-03T09:40:27;24.00;99.90
17385;DHT22;8810;48.680;8.894;2022-09-03T09:43:09;24.20;99.90
17385;DHT22;8810;48.680;8.894;2022-09-03T09:45:37;24.20;99.90
17385;DHT22;8810;48.680;8.894;2022-09-03T09:48:09;24.00;99.90
17385;DHT22;8810;48.680;8.894;2022-09-03T09:50:39;24.00;99.90
17385;DHT22;8810;48.680;8.894;2022-09-03T09:53:09;23.90;99.90
17385;DHT22;8810;48.680;8.894;2022-09-03T09:55:51;23.90;99.90
17385;DHT22;8810;48.680;8.894;2022-09-03T09:58:20;23.90;99.90
17385;DHT22;8810;48.680;8.894;2022-09-03T10:01:02;23.90;99.90
17385;DHT22;8810;48.680;8.894;2022-09-03T10:03:33;23.80;99.90
17385;DHT22;8810;48.680;8.894;2022-09-03T10:06:04;23.80;99.90
17385;DHT22;8810;48.680;8.894;2022-09-03T10:09:04;23.70;99.90
17385;DHT22;8810;48.680;8.894;2022-09-03T10:11:33;23.50;99.90
17385;DHT22;8810;48.680;8.894;2022-09-03T10:14:03;23.50;99.90
17385;DHT22;8810;48.680;8.894;2022-09-03T10:16:39;23.50;99.90
17385;DHT22;8810;48.680;8.894;2022-09-03T10:19:11;23.70;99.90
17385;DHT22;8810;48.680;8.894;2022-09-03T10:21:44;23.80;99.90
17385;DHT22;8810;48.680;8.894;2022-09-03T10:24:25;23.90;99.90
17385;DHT22;8810;48.680;8.894;2022-09-03T10:26:55;24.00;99.90
17385;DHT22;8810;48.680;8.894;2022-09-03T10:29:23;24.20;99.90
17385;DHT22;8810;48.680;8.894;2022-09-03T10:32:02;24.50;99.90
17385;DHT22;8810;48.680;8.894;2022-09-03T10:34:37;24.90;99.90
17385;DHT22;8810;48.680;8.894;2022-09-03T10:37:15;25.10;99.90
17385;DHT22;8810;48.680;8.894;2022-09-03T10:39:53;25.30;99.90
17385;DHT22;8810;48.680;8.894;2022-09-03T10:42:34;25.30;99.90
17385;DHT22;8810;48.680;8.894;2022-09-03T10:45:12;25.30;99.90
17385;DHT22;8810;48.680;8.894;2022-09-03T10:48:12;25.20;99.90
17385;DHT22;8810;48.680;8.894;2022-09-03T10:50:46;25.10;99.90
17385;DHT22;8810;48.680;8.894;2022-09-03T10:53:24;24.80;99.90
17385;DHT22;8810;48.680;8.894;2022-09-03T10:55:58;24.50;99.90
17385;DHT22;8810;48.680;8.894;2022-09-03T10:58:40;24.20;99.90
17385;DHT22;8810;48.680;8.894;2022-09-03T11:01:20;23.90;99.90
17385;DHT22;8810;48.680;8.894;2022-09-03T11:03:55;23.70;99.90
17385;DHT22;8810;48.680;8.894;2022-09-03T11:06:28;23.40;99.90
17385;DHT22;8810;48.680;8.894;2022-09-03T11:08:58;23.10;99.90
17385;DHT22;8810;48.680;8.894;2022-09-03T11:11:33;22.90;99.90
17385;DHT22;8810;48.680;8.894;2022-09-03T11:14:07;22.70;99.90
17385;DHT22;8810;48.680;8.894;2022-09-03T11:16:37;22.50;99.90
17385;DHT22;8810;48.680;8.894;2022-09-03T11:19:08;22.40;99.90
17385;DHT22;8810;48.680;8.894;2022-09-03T11:21:37;22.30;99.90
17385;DHT22;8810;48.680;8.894;2022-09-03T11:24:11;22.30;99.90
17385;DHT22;8810;48.680;8.894;2022-09-03T11:26:41;22.20;99.90
17385;DHT22;8810;48.680;8.894;2022-09-03T11:29:13;22.10;99.90
17385;DHT22;8810;48.680;8.894;2022-09-03T11:31:54;22.00;99.90
17385;DHT22;8810;48.680;8.894;2022-09-03T11:34:28;22.00;99.90
17385;DHT22;8810;48.680;8.894;2022-09-03T11:37:16;21.90;99.90
17385;DHT22;8810;48.680;8.894;2022-09-03T11:39:44;21.80;99.90
17385;DHT22;8810;48.680;8.894;2022-09-03T11:42:28;21.70;99.90
17385;DHT22;8810;48.680;8.894;2022-09-03T11:45:23;21.60;99.90
17385;DHT22;8810;48.680;8.894;2022-09-03T11:47:51;21.60;99.90
17385;DHT22;8810;48.680;8.894;2022-09-03T11:50:21;21.50;99.90
17385;DHT22;8810;48.680;8.894;2022-09-03T11:52:49;21.40;99.90
17385;DHT22;8810;48.680;8.894;2022-09-03T11:55:30;21.10;99.90
17385;DHT22;8810;48.680;8.894;2022-09-03T11:58:10;20.60;99.90
17385;DHT22;8810;48.680;8.894;2022-09-03T12:00:38;20.00;99.90
17385;DHT22;8810;48.680;8.894;2022-09-03T12:03:12;19.60;99.90
17385;DHT22;8810;48.680;8.894;2022-09-03T12:05:48;19.00;99.90
17385;DHT22;8810;48.680;8.894;2022-09-03T12:08:54;18.10;99.90
17385;DHT22;8810;48.680;8.894;2022-09-03T12:11:34;17.40;99.90
17385;DHT22;8810;48.680;8.894;2022-09-03T12:14:12;16.90;99.90
17385;DHT22;8810;48.680;8.894;2022-09-03T12:16:56;16.60;99.90
17385;DHT22;8810;48.680;8.894;2022-09-03T12:19:33;16.40;99.90
17385;DHT22;8810;48.680;8.894;2022-09-03T12:22:02;16.20;99.90
17385;DHT22;8810;48.680;8.894;2022-09-03T12:24:30;16.10;99.90
17385;DHT22;8810;48.680;8.894;2022-09-03T12:26:58;16.00;99.90
17385;DHT22;8810;48.680;8.894;2022-09-03T12:29:28;15.90;99.90
17385;DHT22;8810;48.680;8.894;2022-09-03T12:32:04;15.80;99.90
17385;DHT22;8810;48.680;8.894;2022-09-03T12:34:31;15.70;99.90
17385;DHT22;8810;48.680;8.894;2022-09-03T12:36:58;15.70;99.90
17385;DHT22;8810;48.680;8.894;2022-09-03T12:39:27;15.80;99.90
17385;DHT22;8810;48.680;8.894;2022-09-03T12:42:00;15.90;99.90
17385;DHT22;8810;48.680;8.894;2022-09-03T12:44:31;16.10;99.90
17385;DHT22;8810;48.680;8.894;2022-09-03T12:47:03;16.30;99.90
17385;DHT22;8810;48.680;8.894;2022-09-03T12:49:34;16.40;99.90
17385;DHT22;8810;48.680;8.894;2022-09-03T12:52:06;16.50;99.90
17385;DHT22;8810;48.680;8.894;2022-09-03T12:54:37;16.70;99.90
17385;DHT22;8810;48.680;8.894;2022-09-03T12:57:07;16.80;99.90
17385;DHT22;8810;48.680;8.894;2022-09-03T12:59:36;16.90;99.90
17385;DHT22;8810;48.680;8.894;2022-09-03T13:02:10;17.00;99.90
17385;DHT22;8810;48.680;8.894;2022-09-03T13:04:39;17.10;99.90
17385;DHT22;8810;48.680;8.894;2022-09-03T13:07:11;17.30;99.90
17385;DHT22;8810;48.680;8.894;2022-09-03T13:09:41;17.30;99.90
17385;DHT22;8810;48.680;8.894;2022-09-03T13:12:21;17.50;99.90
17385;DHT22;8810;48.680;8.894;2022-09-03T13:14:50;17.50;99.90
17385;DHT22;8810;48.680;8.894;2022-09-03T13:17:26;17.50;99.90
17385;DHT22;8810;48.680;8.894;2022-09-03T13:20:24;17.50;99.90
17385;DHT22;8810;48.680;8.894;2022-09-03T13:23:11;17.60;99.90
17385;DHT22;8810;48.680;8.894;2022-09-03T13:25:49;17.60;99.90
17385;DHT22;8810;48.680;8.894;2022-09-03T13:28:26;17.60;99.90
17385;DHT22;8810;48.680;8.894;2022-09-03T13:31:02;17.50;99.90
17385;DHT22;8810;48.680;8.894;2022-09-03T13:33:36;17.70;99.90
17385;DHT22;8810;48.680;8.894;2022-09-03T13:36:09;17.80;99.90
17385;DHT22;8810;48.680;8.894;2022-09-03T13:38:43;17.80;99.90
17385;DHT22;8810;48.680;8.894;2022-09-03T13:41:14;18.00;99.90
17385;DHT22;8810;48.680;8.894;2022-09-03T13:43:50;18.30;99.90
17385;DHT22;8810;48.680;8.894;2022-09-03T13:46:24;18.70;99.90
17385;DHT22;8810;48.680;8.894;2022-09-03T13:49:00;19.10;99.90
17385;DHT22;8810;48.680;8.894;2022-09-03T13:51:48;19.20;99.90
17385;DHT22;8810;48.680;8.894;2022-09-03T13:54:21;19.40;99.90
17385;DHT22;8810;48.680;8.894;2022-09-03T13:56:54;19.50;99.90
17385;DHT22;8810;48.680;8.894;2022-09-03T13:59:30;19.70;99.90
17385;DHT22;8810;48.680;8.894;2022-09-03T14:02:19;19.80;99.90
17385;DHT22;8810;48.680;8.894;2022-09-03T14:05:03;19.80;99.90
17385;DHT22;8810;48.680;8.894;2022-09-03T14:07:43;19.90;99.90
17385;DHT22;8810;48.680;8.894;2022-09-03T14:10:21;19.90;99.90
17385;DHT22;8810;48.680;8.894;2022-09-03T14:12:52;20.00;99.90
17385;DHT22;8810;48.680;8.894;2022-09-03T14:15:23;20.10;99.90
17385;DHT22;8810;48.680;8.894;2022-09-03T14:18:01;20.10;99.90
17385;DHT22;8810;48.680;8.894;2022-09-03T14:20:30;20.10;99.90
17385;DHT22;8810;48.680;8.894;2022-09-03T14:23:02;20.10;99.90
17385;DHT22;8810;48.680;8.894;2022-09-03T14:25:31;20.00;99.90
17385;DHT22;8810;48.680;8.894;2022-09-03T14:28:12;19.90;99.90
17385;DHT22;8810;48.680;8.894;2022-09-03T14:30:44;19.80;99.90
17385;DHT22;8810;48.680;8.894;2022-09-03T14:33:18;19.80;99.90
17385;DHT22;8810;48.680;8.894;2022-09-03T14:35:58;19.80;99.90
17385;DHT22;8810;48.680;8.894;2022-09-03T14:41:31;19.80;99.90
17385;DHT22;8810;48.680;8.894;2022-09-03T14:44:26;19.80;99.90
17385;DHT22;8810;48.680;8.894;2022-09-03T14:47:12;19.90;99.90
17385;DHT22;8810;48.680;8.894;2022-09-03T14:53:02;20.10;99.90
17385;DHT22;8810;48.680;8.894;2022-09-03T14:55:55;20.20;99.90
17385;DHT22;8810;48.680;8.894;2022-09-03T15:01:11;20.40;99.90
17385;DHT22;8810;48.680;8.894;2022-09-03T15:04:01;20.40;99.90
17385;DHT22;8810;48.680;8.894;2022-09-03T15:06:42;20.60;99.90
17385;DHT22;8810;48.680;8.894;2022-09-03T15:09:21;21.00;99.90
17385;DHT22;8810;48.680;8.894;2022-09-03T15:11:51;21.30;99.90
17385;DHT22;8810;48.680;8.894;2022-09-03T15:14:25;21.60;99.90
17385;DHT22;8810;48.680;8.894;2022-09-03T15:16:58;21.60;99.90
17385;DHT22;8810;48.680;8.894;2022-09-03T15:19:56;21.70;99.90
17385;DHT22;8810;48.680;8.894;2022-09-03T15:22:36;21.80;99.90
17385;DHT22;8810;48.680;8.894;2022-09-03T15:25:15;21.70;99.90
17385;DHT22;8810;48.680;8.894;2022-09-03T15:27:58;21.70;99.90
17385;DHT22;8810;48.680;8.894;2022-09-03T15:30:34;21.60;99.90
17385;DHT22;8810;48.680;8.894;2022-09-03T15:33:12;21.60;99.90
17385;DHT22;8810;48.680;8.894;2022-09-03T15:36:05;21.60;99.90
17385;DHT22;8810;48.680;8.894;2022-09-03T15:38:43;21.40;99.90
17385;DHT22;8810;48.680;8.894;2022-09-03T15:41:21;21.50;99.90
17385;DHT22;8810;48.680;8.894;2022-09-03T15:43:50;21.60;99.90
17385;DHT22;8810;48.680;8.894;2022-09-03T15:46:36;21.70;99.90
17385;DHT22;8810;48.680;8.894;2022-09-03T15:49:07;21.90;99.90
17385;DHT22;8810;48.680;8.894;2022-09-03T15:51:41;21.90;99.90
17385;DHT22;8810;48.680;8.894;2022-09-03T15:54:21;21.90;99.90
17385;DHT22;8810;48.680;8.894;2022-09-03T15:56:57;21.80;99.90
17385;DHT22;8810;48.680;8.894;2022-09-03T15:59:34;21.70;99.90
17385;DHT22;8810;48.680;8.894;2022-09-03T16:02:06;21.60;99.90
17385;DHT22;8810;48.680;8.894;2022-09-03T16:04:49;21.50;99.90
17385;DHT22;8810;48.680;8.894;2022-09-03T16:07:23;21.40;99.90
17385;DHT22;8810;48.680;8.894;2022-09-03T16:10:04;21.30;99.90
17385;DHT22;8810;48.680;8.894;2022-09-03T16:12:37;21.20;99.90
17385;DHT22;8810;48.680;8.894;2022-09-03T16:15:10;21.10;99.90
17385;DHT22;8810;48.680;8.894;2022-09-03T16:17:49;21.10;99.90
17385;DHT22;8810;48.680;8.894;2022-09-03T16:20:21;21.00;99.90
17385;DHT22;8810;48.680;8.894;2022-09-03T16:22:56;20.90;99.90
17385;DHT22;8810;48.680;8.894;2022-09-03T16:25:30;20.80;99.90
17385;DHT22;8810;48.680;8.894;2022-09-03T16:28:04;20.70;99.90
17385;DHT22;8810;48.680;8.894;2022-09-03T16:30:49;20.70;99.90
17385;DHT22;8810;48.680;8.894;2022-09-03T16:33:25;20.70;99.90
17385;DHT22;8810;48.680;8.894;2022-09-03T16:36:02;20.70;99.90